sensor_id;sensor_type;location;lat;lon;timestamp;P1;durP1;ratioP1;P2;durP2;ratioP2
12059;SDS011;6091;51.432;6.880;2023-05-27T00:00:11;1.50;;;1.40;;
12059;SDS011;6091;51.432;6.880;2023-05-27T00:02:38;2.17;;;1.65;;
12059;SDS011;6091;51.432;6.880;2023-05-27T00:05:05;2.13;;;1.48;;
12059;SDS011;6091;51.432;6.880;2023-05-27T00:07:33;2.13;;;1.90;;
12059;SDS011;6091;51.432;6.880;2023-05-27T00:10:00;2.10;;;1.45;;
12059;SDS011;6091;51.432;6.880;2023-05-27T00:12:27;2.20;;;1.33;;
12059;SDS011;6091;51.432;6.880;2023-05-27T00:14:54;1.70;;;1.35;;
12059;SDS011;6091;51.432;6.880;2023-05-27T00:17:21;1.90;;;1.70;;
12059;SDS011;6091;51.432;6.880;2023-05-27T00:19:48;2.63;;;1.90;;
12059;SDS011;6091;51.432;6.880;2023-05-27T00:22:18;1.70;;;1.50;;
12059;SDS011;6091;51.432;6.880;2023-05-27T00:24:45;2.22;;;1.42;;
12059;SDS011;6091;51.432;6.880;2023-05-27T00:27:11;2.45;;;1.88;;
12059;SDS011;6091;51.432;6.880;2023-05-27T00:29:38;1.65;;;1.50;;
12059;SDS011;6091;51.432;6.880;2023-05-27T00:32:05;2.50;;;1.65;;
12059;SDS011;6091;51.432;6.880;2023-05-27T00:34:32;2.13;;;1.48;;
12059;SDS011;6091;51.432;6.880;2023-05-27T00:37:00;1.45;;;1.33;;
12059;SDS011;6091;51.432;6.880;2023-05-27T00:39:27;1.40;;;1.23;;
12059;SDS011;6091;51.432;6.880;2023-05-27T00:41:55;3.05;;;1.60;;
12059;SDS011;6091;51.432;6.880;2023-05-27T00:44:23;1.75;;;1.60;;
12059;SDS011;6091;51.432;6.880;2023-05-27T00:46:50;2.47;;;1.73;;
12059;SDS011;6091;51.432;6.880;2023-05-27T00:49:17;1.40;;;1.30;;
12059;SDS011;6091;51.432;6.880;2023-05-27T00:51:45;2.08;;;1.58;;
12059;SDS011;6091;51.432;6.880;2023-05-27T00:54:12;1.88;;;1.50;;
12059;SDS011;6091;51.432;6.880;2023-05-27T00:56:39;1.73;;;1.40;;
12059;SDS011;6091;51.432;6.880;2023-05-27T00:59:06;1.98;;;1.40;;
12059;SDS011;6091;51.432;6.880;2023-05-27T01:01:33;1.83;;;1.50;;
12059;SDS011;6091;51.432;6.880;2023-05-27T01:04:03;1.73;;;1.40;;
12059;SDS011;6091;51.432;6.880;2023-05-27T01:06:40;2.05;;;1.80;;
12059;SDS011;6091;51.432;6.880;2023-05-27T01:12:51;2.97;;;1.80;;
12059;SDS011;6091;51.432;6.880;2023-05-27T01:15:28;1.50;;;1.30;;
12059;SDS011;6091;51.432;6.880;2023-05-27T01:17:59;1.55;;;1.40;;
12059;SDS011;6091;51.432;6.880;2023-05-27T01:20:29;2.75;;;1.50;;
12059;SDS011;6091;51.432;6.880;2023-05-27T01:22:57;1.98;;;1.42;;
12059;SDS011;6091;51.432;6.880;2023-05-27T01:25:25;1.77;;;1.52;;
12059;SDS011;6091;51.432;6.880;2023-05-27T01:27:52;1.73;;;1.30;;
12059;SDS011;6091;51.432;6.880;2023-05-27T01:30:23;3.42;;;1.70;;
12059;SDS011;6091;51.432;6.880;2023-05-27T01:32:57;1.83;;;1.45;;
12059;SDS011;6091;51.432;6.880;2023-05-27T01:35:40;3.08;;;1.67;;
12059;SDS011;6091;51.432;6.880;2023-05-27T01:38:17;1.70;;;1.50;;
12059;SDS011;6091;51.432;6.880;2023-05-27T01:40:47;2.13;;;1.67;;
12059;SDS011;6091;51.432;6.880;2023-05-27T01:43:16;2.13;;;1.52;;
12059;SDS011;6091;51.432;6.880;2023-05-27T01:45:45;2.78;;;1.50;;
12059;SDS011;6091;51.432;6.880;2023-05-27T01:48:12;1.52;;;1.30;;
12059;SDS011;6091;51.432;6.880;2023-05-27T01:50:39;2.15;;;1.65;;
12059;SDS011;6091;51.432;6.880;2023-05-27T01:53:06;1.50;;;1.40;;
12059;SDS011;6091;51.432;6.880;2023-05-27T01:55:33;2.10;;;1.63;;
12059;SDS011;6091;51.432;6.880;2023-05-27T01:58:00;3.42;;;1.50;;
12059;SDS011;6091;51.432;6.880;2023-05-27T02:00:28;1.60;;;1.23;;
12059;SDS011;6091;51.432;6.880;2023-05-27T02:02:54;1.92;;;1.70;;
12059;SDS011;6091;51.432;6.880;2023-05-27T02:05:23;2.47;;;1.55;;
12059;SDS011;6091;51.432;6.880;2023-05-27T02:07:50;1.95;;;1.35;;
12059;SDS011;6091;51.432;6.880;2023-05-27T02:10:17;1.42;;;1.30;;
12059;SDS011;6091;51.432;6.880;2023-05-27T02:12:44;2.33;;;1.63;;
12059;SDS011;6091;51.432;6.880;2023-05-27T02:15:11;2.10;;;1.50;;
12059;SDS011;6091;51.432;6.880;2023-05-27T02:17:38;1.67;;;1.40;;
12059;SDS011;6091;51.432;6.880;2023-05-27T02:20:05;2.20;;;1.70;;
12059;SDS011;6091;51.432;6.880;2023-05-27T02:22:33;2.33;;;1.48;;
12059;SDS011;6091;51.432;6.880;2023-05-27T02:24:59;1.65;;;1.35;;
12059;SDS011;6091;51.432;6.880;2023-05-27T02:27:27;1.70;;;1.60;;
12059;SDS011;6091;51.432;6.880;2023-05-27T02:29:53;2.22;;;1.52;;
12059;SDS011;6091;51.432;6.880;2023-05-27T02:32:22;2.92;;;1.55;;
12059;SDS011;6091;51.432;6.880;2023-05-27T02:34:49;1.60;;;1.48;;
12059;SDS011;6091;51.432;6.880;2023-05-27T02:37:16;1.70;;;1.60;;
12059;SDS011;6091;51.432;6.880;2023-05-27T02:39:43;1.73;;;1.42;;
12059;SDS011;6091;51.432;6.880;2023-05-27T02:42:10;1.63;;;1.30;;
12059;SDS011;6091;51.432;6.880;2023-05-27T02:44:37;2.33;;;1.70;;
12059;SDS011;6091;51.432;6.880;2023-05-27T02:47:04;1.52;;;1.40;;
12059;SDS011;6091;51.432;6.880;2023-05-27T02:49:31;1.67;;;1.50;;
12059;SDS011;6091;51.432;6.880;2023-05-27T02:51:58;1.63;;;1.50;;
12059;SDS011;6091;51.432;6.880;2023-05-27T02:54:25;1.45;;;1.33;;
12059;SDS011;6091;51.432;6.880;2023-05-27T02:56:52;1.38;;;1.20;;
12059;SDS011;6091;51.432;6.880;2023-05-27T02:59:19;1.88;;;1.55;;
12059;SDS011;6091;51.432;6.880;2023-05-27T03:01:46;2.55;;;1.50;;
12059;SDS011;6091;51.432;6.880;2023-05-27T03:04:13;1.70;;;1.33;;
12059;SDS011;6091;51.432;6.880;2023-05-27T03:06:42;1.58;;;1.48;;
12059;SDS011;6091;51.432;6.880;2023-05-27T03:09:09;1.67;;;1.55;;
12059;SDS011;6091;51.432;6.880;2023-05-27T03:11:37;1.70;;;1.58;;
12059;SDS011;6091;51.432;6.880;2023-05-27T03:14:04;1.63;;;1.35;;
12059;SDS011;6091;51.432;6.880;2023-05-27T03:16:31;1.85;;;1.58;;
12059;SDS011;6091;51.432;6.880;2023-05-27T03:18:58;2.08;;;1.50;;
12059;SDS011;6091;51.432;6.880;2023-05-27T03:21:26;1.65;;;1.48;;
12059;SDS011;6091;51.432;6.880;2023-05-27T03:23:53;1.65;;;1.30;;
12059;SDS011;6091;51.432;6.880;2023-05-27T03:26:20;2.13;;;1.48;;
12059;SDS011;6091;51.432;6.880;2023-05-27T03:28:48;1.40;;;1.30;;
12059;SDS011;6091;51.432;6.880;2023-05-27T03:31:15;1.50;;;1.40;;
12059;SDS011;6091;51.432;6.880;2023-05-27T03:33:42;1.65;;;1.50;;
12059;SDS011;6091;51.432;6.880;2023-05-27T03:36:09;2.05;;;1.42;;
12059;SDS011;6091;51.432;6.880;2023-05-27T03:38:36;1.85;;;1.40;;
12059;SDS011;6091;51.432;6.880;2023-05-27T03:41:03;1.63;;;1.30;;
12059;SDS011;6091;51.432;6.880;2023-05-27T03:43:33;2.38;;;1.67;;
12059;SDS011;6091;51.432;6.880;2023-05-27T03:46:00;3.00;;;1.52;;
12059;SDS011;6091;51.432;6.880;2023-05-27T03:48:27;1.60;;;1.50;;
12059;SDS011;6091;51.432;6.880;2023-05-27T03:50:54;1.80;;;1.40;;
12059;SDS011;6091;51.432;6.880;2023-05-27T03:53:21;1.55;;;1.33;;
12059;SDS011;6091;51.432;6.880;2023-05-27T03:55:48;1.75;;;1.50;;
12059;SDS011;6091;51.432;6.880;2023-05-27T03:58:15;1.70;;;1.42;;
12059;SDS011;6091;51.432;6.880;2023-05-27T04:00:42;1.50;;;1.40;;
12059;SDS011;6091;51.432;6.880;2023-05-27T04:03:09;1.80;;;1.42;;
12059;SDS011;6091;51.432;6.880;2023-05-27T04:05:37;1.40;;;1.20;;
12059;SDS011;6091;51.432;6.880;2023-05-27T04:08:04;1.88;;;1.50;;
12059;SDS011;6091;51.432;6.880;2023-05-27T04:10:32;1.70;;;1.52;;
12059;SDS011;6091;51.432;6.880;2023-05-27T04:12:59;1.73;;;1.45;;
12059;SDS011;6091;51.432;6.880;2023-05-27T04:15:26;1.50;;;1.40;;
12059;SDS011;6091;51.432;6.880;2023-05-27T04:17:53;2.38;;;1.58;;
12059;SDS011;6091;51.432;6.880;2023-05-27T04:20:22;1.50;;;1.40;;
12059;SDS011;6091;51.432;6.880;2023-05-27T04:22:49;1.80;;;1.50;;
12059;SDS011;6091;51.432;6.880;2023-05-27T04:25:17;2.67;;;1.65;;
12059;SDS011;6091;51.432;6.880;2023-05-27T04:27:44;2.13;;;1.40;;
12059;SDS011;6091;51.432;6.880;2023-05-27T04:30:12;1.55;;;1.25;;
12059;SDS011;6091;51.432;6.880;2023-05-27T04:32:43;1.48;;;1.38;;
12059;SDS011;6091;51.432;6.880;2023-05-27T04:35:10;1.40;;;1.30;;
12059;SDS011;6091;51.432;6.880;2023-05-27T04:37:37;1.50;;;1.40;;
12059;SDS011;6091;51.432;6.880;2023-05-27T04:40:07;1.63;;;1.40;;
12059;SDS011;6091;51.432;6.880;2023-05-27T04:42:35;1.48;;;1.30;;
12059;SDS011;6091;51.432;6.880;2023-05-27T04:45:05;1.33;;;1.20;;
12059;SDS011;6091;51.432;6.880;2023-05-27T04:47:35;2.03;;;1.23;;
12059;SDS011;6091;51.432;6.880;2023-05-27T04:50:05;1.88;;;1.50;;
12059;SDS011;6091;51.432;6.880;2023-05-27T04:52:35;1.95;;;1.60;;
12059;SDS011;6091;51.432;6.880;2023-05-27T04:55:04;2.17;;;1.65;;
12059;SDS011;6091;51.432;6.880;2023-05-27T04:57:33;1.85;;;1.35;;
12059;SDS011;6091;51.432;6.880;2023-05-27T05:00:00;3.08;;;1.33;;
12059;SDS011;6091;51.432;6.880;2023-05-27T05:02:30;1.95;;;1.52;;
12059;SDS011;6091;51.432;6.880;2023-05-27T05:05:01;1.90;;;1.55;;
12059;SDS011;6091;51.432;6.880;2023-05-27T05:07:30;1.77;;;1.35;;
12059;SDS011;6091;51.432;6.880;2023-05-27T05:09:57;1.70;;;1.40;;
12059;SDS011;6091;51.432;6.880;2023-05-27T05:12:24;2.03;;;1.40;;
12059;SDS011;6091;51.432;6.880;2023-05-27T05:14:52;1.67;;;1.38;;
12059;SDS011;6091;51.432;6.880;2023-05-27T05:17:19;1.63;;;1.45;;
12059;SDS011;6091;51.432;6.880;2023-05-27T05:19:51;2.05;;;1.52;;
12059;SDS011;6091;51.432;6.880;2023-05-27T05:22:19;1.30;;;1.20;;
12059;SDS011;6091;51.432;6.880;2023-05-27T05:24:48;2.03;;;1.40;;
12059;SDS011;6091;51.432;6.880;2023-05-27T05:27:16;2.08;;;1.60;;
12059;SDS011;6091;51.432;6.880;2023-05-27T05:29:43;1.40;;;1.30;;
12059;SDS011;6091;51.432;6.880;2023-05-27T05:32:11;1.85;;;1.50;;
12059;SDS011;6091;51.432;6.880;2023-05-27T05:34:39;1.67;;;1.48;;
12059;SDS011;6091;51.432;6.880;2023-05-27T05:37:06;1.90;;;1.40;;
12059;SDS011;6091;51.432;6.880;2023-05-27T05:39:33;2.00;;;1.52;;
12059;SDS011;6091;51.432;6.880;2023-05-27T05:42:00;1.50;;;1.40;;
12059;SDS011;6091;51.432;6.880;2023-05-27T05:44:28;2.28;;;1.60;;
12059;SDS011;6091;51.432;6.880;2023-05-27T05:46:57;3.10;;;1.70;;
12059;SDS011;6091;51.432;6.880;2023-05-27T05:49:24;2.08;;;1.50;;
12059;SDS011;6091;51.432;6.880;2023-05-27T05:51:51;2.00;;;1.58;;
12059;SDS011;6091;51.432;6.880;2023-05-27T05:54:18;1.58;;;1.48;;
12059;SDS011;6091;51.432;6.880;2023-05-27T05:56:45;2.70;;;1.60;;
12059;SDS011;6091;51.432;6.880;2023-05-27T05:59:12;1.83;;;1.40;;
12059;SDS011;6091;51.432;6.880;2023-05-27T06:01:39;1.38;;;1.27;;
12059;SDS011;6091;51.432;6.880;2023-05-27T06:04:06;1.88;;;1.48;;
12059;SDS011;6091;51.432;6.880;2023-05-27T06:06:33;1.73;;;1.52;;
12059;SDS011;6091;51.432;6.880;2023-05-27T06:09:00;2.25;;;1.63;;
12059;SDS011;6091;51.432;6.880;2023-05-27T06:11:27;1.45;;;1.35;;
12059;SDS011;6091;51.432;6.880;2023-05-27T06:13:54;2.13;;;1.63;;
12059;SDS011;6091;51.432;6.880;2023-05-27T06:16:21;1.90;;;1.55;;
12059;SDS011;6091;51.432;6.880;2023-05-27T06:18:49;1.60;;;1.27;;
12059;SDS011;6091;51.432;6.880;2023-05-27T06:21:16;1.70;;;1.13;;
12059;SDS011;6091;51.432;6.880;2023-05-27T06:23:43;1.65;;;1.48;;
12059;SDS011;6091;51.432;6.880;2023-05-27T06:26:10;1.58;;;1.48;;
12059;SDS011;6091;51.432;6.880;2023-05-27T06:28:37;1.77;;;1.30;;
12059;SDS011;6091;51.432;6.880;2023-05-27T06:31:04;1.70;;;1.30;;
12059;SDS011;6091;51.432;6.880;2023-05-27T06:33:31;1.50;;;1.40;;
12059;SDS011;6091;51.432;6.880;2023-05-27T06:35:58;1.70;;;1.30;;
12059;SDS011;6091;51.432;6.880;2023-05-27T06:38:25;2.15;;;1.58;;
12059;SDS011;6091;51.432;6.880;2023-05-27T06:40:52;2.05;;;1.48;;
12059;SDS011;6091;51.432;6.880;2023-05-27T06:43:19;1.65;;;1.45;;
12059;SDS011;6091;51.432;6.880;2023-05-27T06:45:46;1.50;;;1.40;;
12059;SDS011;6091;51.432;6.880;2023-05-27T06:48:29;2.08;;;1.38;;
12059;SDS011;6091;51.432;6.880;2023-05-27T06:50:56;2.22;;;1.60;;
12059;SDS011;6091;51.432;6.880;2023-05-27T06:53:23;1.50;;;1.40;;
12059;SDS011;6091;51.432;6.880;2023-05-27T06:55:50;1.83;;;1.60;;
12059;SDS011;6091;51.432;6.880;2023-05-27T06:58:17;1.77;;;1.40;;
12059;SDS011;6091;51.432;6.880;2023-05-27T07:00:44;1.58;;;1.42;;
12059;SDS011;6091;51.432;6.880;2023-05-27T07:03:11;1.83;;;1.27;;
12059;SDS011;6091;51.432;6.880;2023-05-27T07:05:38;1.42;;;1.30;;
12059;SDS011;6091;51.432;6.880;2023-05-27T07:08:05;1.90;;;1.55;;
12059;SDS011;6091;51.432;6.880;2023-05-27T07:10:33;2.60;;;1.58;;
12059;SDS011;6091;51.432;6.880;2023-05-27T07:13:00;1.92;;;1.60;;
12059;SDS011;6091;51.432;6.880;2023-05-27T07:15:27;3.35;;;1.38;;
12059;SDS011;6091;51.432;6.880;2023-05-27T07:17:54;1.85;;;1.42;;
12059;SDS011;6091;51.432;6.880;2023-05-27T07:20:21;1.92;;;1.50;;
12059;SDS011;6091;51.432;6.880;2023-05-27T07:22:49;1.75;;;1.55;;
12059;SDS011;6091;51.432;6.880;2023-05-27T07:25:16;2.65;;;1.70;;
12059;SDS011;6091;51.432;6.880;2023-05-27T07:27:43;2.08;;;1.63;;
12059;SDS011;6091;51.432;6.880;2023-05-27T07:30:10;1.73;;;1.63;;
12059;SDS011;6091;51.432;6.880;2023-05-27T07:32:38;2.25;;;1.70;;
12059;SDS011;6091;51.432;6.880;2023-05-27T07:35:05;2.35;;;1.73;;
12059;SDS011;6091;51.432;6.880;2023-05-27T07:37:33;2.35;;;1.45;;
12059;SDS011;6091;51.432;6.880;2023-05-27T07:40:00;2.60;;;2.15;;
12059;SDS011;6091;51.432;6.880;2023-05-27T07:42:27;2.72;;;2.00;;
12059;SDS011;6091;51.432;6.880;2023-05-27T07:44:56;2.67;;;1.73;;
12059;SDS011;6091;51.432;6.880;2023-05-27T07:47:24;2.33;;;1.80;;
12059;SDS011;6091;51.432;6.880;2023-05-27T07:49:51;2.53;;;1.85;;
12059;SDS011;6091;51.432;6.880;2023-05-27T07:52:18;3.35;;;1.90;;
12059;SDS011;6091;51.432;6.880;2023-05-27T07:54:45;4.13;;;1.80;;
12059;SDS011;6091;51.432;6.880;2023-05-27T07:57:21;2.95;;;2.30;;
12059;SDS011;6091;51.432;6.880;2023-05-27T07:59:48;2.50;;;1.63;;
12059;SDS011;6091;51.432;6.880;2023-05-27T08:02:15;2.92;;;1.90;;
12059;SDS011;6091;51.432;6.880;2023-05-27T08:04:43;2.20;;;1.88;;
12059;SDS011;6091;51.432;6.880;2023-05-27T08:07:11;4.13;;;2.10;;
12059;SDS011;6091;51.432;6.880;2023-05-27T08:09:38;2.97;;;1.98;;
12059;SDS011;6091;51.432;6.880;2023-05-27T08:12:05;4.05;;;2.58;;
12059;SDS011;6091;51.432;6.880;2023-05-27T08:14:33;3.83;;;2.13;;
12059;SDS011;6091;51.432;6.880;2023-05-27T08:17:01;4.38;;;2.13;;
12059;SDS011;6091;51.432;6.880;2023-05-27T08:19:28;6.00;;;2.22;;
12059;SDS011;6091;51.432;6.880;2023-05-27T08:21:56;3.45;;;2.40;;
12059;SDS011;6091;51.432;6.880;2023-05-27T08:24:23;2.60;;;1.98;;
12059;SDS011;6091;51.432;6.880;2023-05-27T08:26:50;3.40;;;1.98;;
12059;SDS011;6091;51.432;6.880;2023-05-27T08:29:17;3.38;;;2.63;;
12059;SDS011;6091;51.432;6.880;2023-05-27T08:31:45;4.28;;;2.40;;
12059;SDS011;6091;51.432;6.880;2023-05-27T08:34:12;4.20;;;2.42;;
12059;SDS011;6091;51.432;6.880;2023-05-27T08:36:39;3.50;;;2.28;;
12059;SDS011;6091;51.432;6.880;2023-05-27T08:39:06;4.57;;;2.65;;
12059;SDS011;6091;51.432;6.880;2023-05-27T08:41:33;3.42;;;2.28;;
12059;SDS011;6091;51.432;6.880;2023-05-27T08:44:01;4.20;;;2.15;;
12059;SDS011;6091;51.432;6.880;2023-05-27T08:46:46;3.35;;;2.50;;
12059;SDS011;6091;51.432;6.880;2023-05-27T08:49:17;3.83;;;2.55;;
12059;SDS011;6091;51.432;6.880;2023-05-27T08:51:45;5.03;;;2.53;;
12059;SDS011;6091;51.432;6.880;2023-05-27T08:54:12;3.05;;;1.85;;
12059;SDS011;6091;51.432;6.880;2023-05-27T08:56:39;2.38;;;2.15;;
12059;SDS011;6091;51.432;6.880;2023-05-27T08:59:09;4.75;;;2.50;;
12059;SDS011;6091;51.432;6.880;2023-05-27T09:01:38;4.05;;;2.30;;
12059;SDS011;6091;51.432;6.880;2023-05-27T09:04:06;4.10;;;2.20;;
12059;SDS011;6091;51.432;6.880;2023-05-27T09:06:34;4.47;;;2.28;;
12059;SDS011;6091;51.432;6.880;2023-05-27T09:09:01;3.80;;;2.22;;
12059;SDS011;6091;51.432;6.880;2023-05-27T09:11:28;3.00;;;2.65;;
12059;SDS011;6091;51.432;6.880;2023-05-27T09:14:00;3.50;;;2.50;;
12059;SDS011;6091;51.432;6.880;2023-05-27T09:16:27;4.10;;;2.47;;
12059;SDS011;6091;51.432;6.880;2023-05-27T09:18:54;4.22;;;2.70;;
12059;SDS011;6091;51.432;6.880;2023-05-27T09:21:23;4.13;;;3.00;;
12059;SDS011;6091;51.432;6.880;2023-05-27T09:23:55;3.97;;;2.20;;
12059;SDS011;6091;51.432;6.880;2023-05-27T09:26:26;5.28;;;2.40;;
12059;SDS011;6091;51.432;6.880;2023-05-27T09:28:54;7.35;;;2.70;;
12059;SDS011;6091;51.432;6.880;2023-05-27T09:31:23;3.00;;;2.20;;
12059;SDS011;6091;51.432;6.880;2023-05-27T09:33:50;4.57;;;2.60;;
12059;SDS011;6091;51.432;6.880;2023-05-27T09:36:19;4.32;;;2.50;;
12059;SDS011;6091;51.432;6.880;2023-05-27T09:38:49;3.13;;;2.28;;
12059;SDS011;6091;51.432;6.880;2023-05-27T09:41:22;3.25;;;2.35;;
12059;SDS011;6091;51.432;6.880;2023-05-27T09:43:54;5.32;;;2.38;;
12059;SDS011;6091;51.432;6.880;2023-05-27T09:46:22;6.57;;;2.90;;
12059;SDS011;6091;51.432;6.880;2023-05-27T09:48:52;10.30;;;2.80;;
12059;SDS011;6091;51.432;6.880;2023-05-27T09:51:20;7.97;;;2.88;;
12059;SDS011;6091;51.432;6.880;2023-05-27T09:53:50;8.65;;;2.78;;
12059;SDS011;6091;51.432;6.880;2023-05-27T09:56:26;7.78;;;2.85;;
12059;SDS011;6091;51.432;6.880;2023-05-27T09:58:55;9.93;;;3.40;;
12059;SDS011;6091;51.432;6.880;2023-05-27T10:01:24;5.38;;;2.75;;
12059;SDS011;6091;51.432;6.880;2023-05-27T10:03:56;5.78;;;3.03;;
12059;SDS011;6091;51.432;6.880;2023-05-27T10:06:25;9.43;;;3.22;;
12059;SDS011;6091;51.432;6.880;2023-05-27T10:08:52;9.90;;;3.20;;
12059;SDS011;6091;51.432;6.880;2023-05-27T10:11:19;7.57;;;2.92;;
12059;SDS011;6091;51.432;6.880;2023-05-27T10:13:47;9.45;;;2.90;;
12059;SDS011;6091;51.432;6.880;2023-05-27T10:16:19;6.15;;;2.75;;
12059;SDS011;6091;51.432;6.880;2023-05-27T10:18:48;6.15;;;2.70;;
12059;SDS011;6091;51.432;6.880;2023-05-27T10:21:20;8.68;;;3.20;;
12059;SDS011;6091;51.432;6.880;2023-05-27T10:23:55;7.13;;;2.85;;
12059;SDS011;6091;51.432;6.880;2023-05-27T10:26:43;5.47;;;2.70;;
12059;SDS011;6091;51.432;6.880;2023-05-27T10:29:14;7.18;;;3.13;;
12059;SDS011;6091;51.432;6.880;2023-05-27T10:31:47;5.75;;;2.50;;
12059;SDS011;6091;51.432;6.880;2023-05-27T10:34:19;5.70;;;2.55;;
12059;SDS011;6091;51.432;6.880;2023-05-27T10:36:46;5.43;;;2.47;;
12059;SDS011;6091;51.432;6.880;2023-05-27T10:39:24;6.38;;;3.00;;
12059;SDS011;6091;51.432;6.880;2023-05-27T10:41:55;5.28;;;2.78;;
12059;SDS011;6091;51.432;6.880;2023-05-27T10:47:02;8.00;;;2.80;;
12059;SDS011;6091;51.432;6.880;2023-05-27T10:49:34;6.07;;;2.58;;
12059;SDS011;6091;51.432;6.880;2023-05-27T10:54:42;4.10;;;2.38;;
12059;SDS011;6091;51.432;6.880;2023-05-27T10:57:18;5.15;;;2.80;;
12059;SDS011;6091;51.432;6.880;2023-05-27T10:59:49;5.97;;;2.72;;
12059;SDS011;6091;51.432;6.880;2023-05-27T11:02:24;4.38;;;2.03;;
12059;SDS011;6091;51.432;6.880;2023-05-27T11:05:07;3.65;;;2.40;;
12059;SDS011;6091;51.432;6.880;2023-05-27T11:07:40;5.68;;;2.70;;
12059;SDS011;6091;51.432;6.880;2023-05-27T11:10:08;4.53;;;2.22;;
12059;SDS011;6091;51.432;6.880;2023-05-27T11:12:36;5.25;;;2.80;;
12059;SDS011;6091;51.432;6.880;2023-05-27T11:15:03;8.80;;;2.70;;
12059;SDS011;6091;51.432;6.880;2023-05-27T11:17:31;5.07;;;2.78;;
12059;SDS011;6091;51.432;6.880;2023-05-27T11:19:58;5.30;;;2.45;;
12059;SDS011;6091;51.432;6.880;2023-05-27T11:22:25;4.90;;;2.72;;
12059;SDS011;6091;51.432;6.880;2023-05-27T11:24:56;4.00;;;2.50;;
12059;SDS011;6091;51.432;6.880;2023-05-27T11:27:38;4.00;;;2.40;;
12059;SDS011;6091;51.432;6.880;2023-05-27T11:30:10;4.43;;;2.70;;
12059;SDS011;6091;51.432;6.880;2023-05-27T11:32:40;3.15;;;2.00;;
12059;SDS011;6091;51.432;6.880;2023-05-27T11:35:14;2.97;;;2.58;;
12059;SDS011;6091;51.432;6.880;2023-05-27T11:37:50;4.35;;;2.78;;
12059;SDS011;6091;51.432;6.880;2023-05-27T11:40:19;5.25;;;2.72;;
12059;SDS011;6091;51.432;6.880;2023-05-27T11:42:47;3.80;;;2.50;;
12059;SDS011;6091;51.432;6.880;2023-05-27T11:45:14;4.88;;;2.75;;
12059;SDS011;6091;51.432;6.880;2023-05-27T11:47:46;4.25;;;2.25;;
12059;SDS011;6091;51.432;6.880;2023-05-27T11:50:18;4.05;;;2.20;;
12059;SDS011;6091;51.432;6.880;2023-05-27T11:52:54;4.13;;;2.17;;
12059;SDS011;6091;51.432;6.880;2023-05-27T11:55:23;3.83;;;2.33;;
12059;SDS011;6091;51.432;6.880;2023-05-27T11:57:51;3.60;;;2.50;;
12059;SDS011;6091;51.432;6.880;2023-05-27T12:00:18;3.08;;;2.25;;
12059;SDS011;6091;51.432;6.880;2023-05-27T12:02:45;2.63;;;2.17;;
12059;SDS011;6091;51.432;6.880;2023-05-27T12:05:13;2.95;;;2.35;;
12059;SDS011;6091;51.432;6.880;2023-05-27T12:07:58;6.00;;;2.30;;
12059;SDS011;6091;51.432;6.880;2023-05-27T12:10:25;3.55;;;2.28;;
12059;SDS011;6091;51.432;6.880;2023-05-27T12:12:52;4.35;;;2.55;;
12059;SDS011;6091;51.432;6.880;2023-05-27T12:15:19;5.13;;;2.78;;
12059;SDS011;6091;51.432;6.880;2023-05-27T12:17:46;4.47;;;2.22;;
12059;SDS011;6091;51.432;6.880;2023-05-27T12:20:13;4.03;;;2.38;;
12059;SDS011;6091;51.432;6.880;2023-05-27T12:22:40;3.58;;;2.35;;
12059;SDS011;6091;51.432;6.880;2023-05-27T12:25:07;2.45;;;2.13;;
12059;SDS011;6091;51.432;6.880;2023-05-27T12:27:35;3.92;;;2.30;;
12059;SDS011;6091;51.432;6.880;2023-05-27T12:30:02;4.03;;;2.60;;
12059;SDS011;6091;51.432;6.880;2023-05-27T12:32:29;2.92;;;2.08;;
12059;SDS011;6091;51.432;6.880;2023-05-27T12:34:56;3.80;;;2.50;;
12059;SDS011;6091;51.432;6.880;2023-05-27T12:37:23;2.55;;;2.30;;
12059;SDS011;6091;51.432;6.880;2023-05-27T12:39:51;3.17;;;2.15;;
12059;SDS011;6091;51.432;6.880;2023-05-27T12:42:18;2.30;;;2.10;;
12059;SDS011;6091;51.432;6.880;2023-05-27T12:44:45;2.45;;;2.17;;
12059;SDS011;6091;51.432;6.880;2023-05-27T12:47:12;7.35;;;2.40;;
12059;SDS011;6091;51.432;6.880;2023-05-27T12:49:39;3.50;;;1.95;;
12059;SDS011;6091;51.432;6.880;2023-05-27T12:52:08;2.72;;;2.13;;
12059;SDS011;6091;51.432;6.880;2023-05-27T12:54:35;2.60;;;2.10;;
12059;SDS011;6091;51.432;6.880;2023-05-27T12:57:02;2.55;;;1.95;;
12059;SDS011;6091;51.432;6.880;2023-05-27T12:59:31;3.33;;;2.28;;
12059;SDS011;6091;51.432;6.880;2023-05-27T13:02:01;2.67;;;2.17;;
12059;SDS011;6091;51.432;6.880;2023-05-27T13:04:28;2.88;;;2.30;;
12059;SDS011;6091;51.432;6.880;2023-05-27T13:06:56;4.10;;;2.72;;
12059;SDS011;6091;51.432;6.880;2023-05-27T13:09:24;3.50;;;2.22;;
12059;SDS011;6091;51.432;6.880;2023-05-27T13:11:52;3.25;;;2.50;;
12059;SDS011;6091;51.432;6.880;2023-05-27T13:14:19;3.22;;;2.17;;
12059;SDS011;6091;51.432;6.880;2023-05-27T13:16:46;2.55;;;2.35;;
12059;SDS011;6091;51.432;6.880;2023-05-27T13:19:14;2.60;;;2.40;;
12059;SDS011;6091;51.432;6.880;2023-05-27T13:21:41;3.58;;;2.55;;
12059;SDS011;6091;51.432;6.880;2023-05-27T13:24:08;2.63;;;2.35;;
12059;SDS011;6091;51.432;6.880;2023-05-27T13:26:35;2.40;;;2.17;;
12059;SDS011;6091;51.432;6.880;2023-05-27T13:29:02;2.25;;;2.00;;
12059;SDS011;6091;51.432;6.880;2023-05-27T13:31:29;3.20;;;2.70;;
12059;SDS011;6091;51.432;6.880;2023-05-27T13:33:57;2.40;;;2.20;;
12059;SDS011;6091;51.432;6.880;2023-05-27T13:36:24;3.13;;;2.10;;
12059;SDS011;6091;51.432;6.880;2023-05-27T13:38:52;2.40;;;2.20;;
12059;SDS011;6091;51.432;6.880;2023-05-27T13:41:19;3.25;;;2.50;;
12059;SDS011;6091;51.432;6.880;2023-05-27T13:43:46;2.65;;;2.38;;
12059;SDS011;6091;51.432;6.880;2023-05-27T13:46:13;3.60;;;2.47;;
12059;SDS011;6091;51.432;6.880;2023-05-27T13:48:40;4.88;;;2.30;;
12059;SDS011;6091;51.432;6.880;2023-05-27T13:51:07;2.45;;;2.08;;
12059;SDS011;6091;51.432;6.880;2023-05-27T13:53:34;3.22;;;2.40;;
12059;SDS011;6091;51.432;6.880;2023-05-27T13:56:01;3.28;;;2.25;;
12059;SDS011;6091;51.432;6.880;2023-05-27T13:58:28;3.17;;;2.45;;
12059;SDS011;6091;51.432;6.880;2023-05-27T14:00:55;4.13;;;2.40;;
12059;SDS011;6091;51.432;6.880;2023-05-27T14:03:22;2.65;;;2.25;;
12059;SDS011;6091;51.432;6.880;2023-05-27T14:05:49;3.13;;;2.20;;
12059;SDS011;6091;51.432;6.880;2023-05-27T14:08:17;2.15;;;1.95;;
12059;SDS011;6091;51.432;6.880;2023-05-27T14:10:44;2.38;;;2.15;;
12059;SDS011;6091;51.432;6.880;2023-05-27T14:13:11;3.60;;;2.50;;
12059;SDS011;6091;51.432;6.880;2023-05-27T14:15:38;2.90;;;2.10;;
12059;SDS011;6091;51.432;6.880;2023-05-27T14:18:05;2.95;;;2.40;;
12059;SDS011;6091;51.432;6.880;2023-05-27T14:20:33;2.50;;;2.03;;
12059;SDS011;6091;51.432;6.880;2023-05-27T14:23:00;2.20;;;2.00;;
12059;SDS011;6091;51.432;6.880;2023-05-27T14:25:30;3.03;;;2.13;;
12059;SDS011;6091;51.432;6.880;2023-05-27T14:27:57;2.25;;;2.05;;
12059;SDS011;6091;51.432;6.880;2023-05-27T14:30:29;2.92;;;2.50;;
12059;SDS011;6091;51.432;6.880;2023-05-27T14:32:57;3.35;;;2.00;;
12059;SDS011;6091;51.432;6.880;2023-05-27T14:35:28;2.80;;;2.25;;
12059;SDS011;6091;51.432;6.880;2023-05-27T14:37:55;2.72;;;2.13;;
12059;SDS011;6091;51.432;6.880;2023-05-27T14:40:22;3.40;;;2.15;;
12059;SDS011;6091;51.432;6.880;2023-05-27T14:42:49;4.05;;;2.50;;
12059;SDS011;6091;51.432;6.880;2023-05-27T14:45:16;3.30;;;2.53;;
12059;SDS011;6091;51.432;6.880;2023-05-27T14:47:45;2.85;;;2.28;;
12059;SDS011;6091;51.432;6.880;2023-05-27T14:50:12;3.55;;;2.42;;
12059;SDS011;6091;51.432;6.880;2023-05-27T14:52:39;2.78;;;2.40;;
12059;SDS011;6091;51.432;6.880;2023-05-27T14:55:07;3.00;;;2.20;;
12059;SDS011;6091;51.432;6.880;2023-05-27T14:57:34;2.75;;;2.55;;
12059;SDS011;6091;51.432;6.880;2023-05-27T15:00:01;2.75;;;2.42;;
12059;SDS011;6091;51.432;6.880;2023-05-27T15:02:34;2.75;;;2.35;;
12059;SDS011;6091;51.432;6.880;2023-05-27T15:05:03;3.00;;;2.55;;
12059;SDS011;6091;51.432;6.880;2023-05-27T15:07:32;3.90;;;3.00;;
12059;SDS011;6091;51.432;6.880;2023-05-27T15:10:00;3.95;;;2.88;;
12059;SDS011;6091;51.432;6.880;2023-05-27T15:12:28;2.40;;;2.17;;
12059;SDS011;6091;51.432;6.880;2023-05-27T15:15:10;3.03;;;2.28;;